Sunflower Tokyo — JH3422 — position and weather

sailwx.info

Track history (hours):
 
Tides and Currents Weather Stations Pressure Air Temp Water Temp Dewpoint Dewpoint Depression Visibility Wind Speed Wind Dir Waves Ship Positions

Sunflower Tokyo

Last reported at 2017-Sep-20 15:47 UTC. Time now 2017-Sep-22 00:49 UTC.
Position N 34°44' E 139°12'.

Length 167 m; draft 6.5 m.

Type: Cargo ship. MMSI: 431200647.

Date/timePositionNaut miles runAvg speedWind from/ knotsBaromVisibWave heightAir tempDewpointWater temp
2017-Sep-20 15:47N 34°44' E 139°12'518.0
2017-Sep-20 15:30N 34°47' E 139°16'816.2
2017-Sep-20 14:59N 34°53' E 139°24'1818.9
2017-Sep-20 14:00N 35°05' E 139°41'918.1
2017-Sep-20 13:30N 35°13' E 139°46'612.3
2017-Sep-20 13:00N 35°19' E 139°43'815.7
2017-Sep-20 12:31N 35°26' E 139°46'815.8
2017-Sep-20 12:01N 35°33' E 139°50'4 8.7
2017-Sep-20 11:30N 35°37' E 139°48'0 0.0
2017-Sep-20 11:00N 35°37' E 139°48'0 0.0
2017-Sep-20 10:31N 35°37' E 139°48'0 0.0
2017-Sep-20 10:00N 35°37' E 139°48'0 0.0
2017-Sep-20 09:30N 35°37' E 139°48'0 0.0
2017-Sep-20 09:00N 35°37' E 139°48'0 0.0
2017-Sep-20 08:31N 35°37' E 139°48'0 0.0
2017-Sep-20 08:00N 35°37' E 139°48'0 0.0
2017-Sep-20 07:31N 35°37' E 139°48'0 0.0
2017-Sep-20 07:00N 35°37' E 139°48'0 0.0
2017-Sep-20 06:30N 35°37' E 139°48'0 0.0
2017-Sep-20 06:00N 35°37' E 139°48'0 0.0
2017-Sep-20 05:30N 35°37' E 139°48'0 0.0
2017-Sep-20 05:00N 35°37' E 139°48'0 0.0
2017-Sep-20 04:03N 35°37' E 139°48'0 0.0
2017-Sep-20 04:00N 35°37' E 139°48'0 0.0
2017-Sep-20 03:12N 35°37' E 139°48'0 0.0
2017-Sep-20 02:56N 35°37' E 139°48'0 0.0
2017-Sep-20 02:28N 35°37' E 139°48'0 0.0
2017-Sep-20 02:00N 35°37' E 139°48'0 0.0
2017-Sep-20 01:29N 35°37' E 139°48'0 0.0
2017-Sep-20 01:00N 35°37' E 139°48'0 0.0
2017-Sep-20 00:30N 35°37' E 139°48'0 0.0
2017-Sep-20 00:00N 35°37' E 139°48'0 0.0
2017-Sep-19 23:30N 35°37' E 139°48'0 0.0
2017-Sep-19 23:00N 35°37' E 139°48'0 0.0
2017-Sep-19 22:30N 35°37' E 139°48'0 0.0
2017-Sep-19 22:00N 35°37' E 139°48'0 0.0
2017-Sep-19 21:30N 35°37' E 139°48'0 0.0
2017-Sep-19 21:01N 35°37' E 139°48'1 2.0
2017-Sep-19 20:30N 35°36' E 139°47'611.4
2017-Sep-19 20:00N 35°32' E 139°52'4 7.0
2017-Sep-19 19:30N 35°28' E 139°51'611.2
2017-Sep-19 19:00N 35°24' E 139°46'611.2
2017-Sep-19 18:30N 35°18' E 139°44'611.8
2017-Sep-19 18:00N 35°13' E 139°47'918.4
2017-Sep-19 17:31N 35°05' E 139°42'917.0
2017-Sep-19 17:00N 34°59' E 139°34'714.3
2017-Sep-19 16:30N 34°55' E 139°27'1223.7
2017-Sep-19 15:59N 34°46' E 139°17'22020.0
2017-Sep-19 05:00N 33°56' E 134°58'1122.4
2017-Sep-19 04:30N 34°07' E 134°59'1223.7
2017-Sep-19 04:00N 34°19' E 134°59'1122.9
2017-Sep-19 03:30N 34°30' E 135°02'815.7
2017-Sep-19 03:00N 34°36' E 134°56'  
2017-Sep-15 15:19N 34°51' E 139°19'720.4
2017-Sep-15 14:59N 34°55' E 139°26'1020.2
2017-Sep-15 14:30N 35°01' E 139°35'1020.8
2017-Sep-15 14:00N 35°08' E 139°44'815.2
2017-Sep-15 13:31N 35°16' E 139°46'713.2
2017-Sep-15 13:00N 35°21' E 139°42'1019.4
2017-Sep-15 12:30N 35°29' E 139°50'714.6
2017-Sep-15 12:00N 35°36' E 139°47'1 2.1
2017-Sep-15 11:30N 35°37' E 139°48'0 0.0
2017-Sep-15 11:00N 35°37' E 139°48'0 0.0
2017-Sep-15 09:42N 35°37' E 139°48'0 0.0
2017-Sep-15 09:30N 35°37' E 139°48'0 0.0
2017-Sep-15 09:00N 35°37' E 139°48'0 0.0
2017-Sep-15 08:30N 35°37' E 139°48'0 0.0
2017-Sep-15 08:00N 35°37' E 139°48'0 0.0
2017-Sep-15 07:30N 35°37' E 139°48'0 0.0
2017-Sep-15 07:00N 35°37' E 139°48'0 0.0
2017-Sep-15 06:30N 35°37' E 139°48'0 0.0
2017-Sep-15 06:00N 35°37' E 139°48'0 0.0
2017-Sep-15 05:30N 35°37' E 139°48'0 0.0
2017-Sep-15 05:00N 35°37' E 139°48'0 0.0
2017-Sep-15 04:30N 35°37' E 139°48'0 0.0
2017-Sep-15 03:57N 35°37' E 139°48'0 0.0
2017-Sep-15 03:27N 35°37' E 139°48'0 0.0
2017-Sep-15 03:00N 35°37' E 139°48'0 0.0
2017-Sep-15 02:30N 35°37' E 139°48'0 0.0
2017-Sep-15 02:00N 35°37' E 139°48'0 0.0
2017-Sep-15 01:30N 35°37' E 139°48'0 0.0
2017-Sep-15 01:00N 35°37' E 139°48'0 0.0
2017-Sep-15 00:30N 35°37' E 139°48'0 0.0
2017-Sep-15 00:00N 35°37' E 139°48'0 0.0
2017-Sep-14 23:30N 35°37' E 139°48'0 0.0
2017-Sep-14 23:00N 35°37' E 139°48'0 0.0
2017-Sep-14 22:30N 35°37' E 139°48'0 0.0
2017-Sep-14 22:00N 35°37' E 139°48'0 0.0
2017-Sep-14 21:30N 35°37' E 139°48'0 0.0
2017-Sep-14 21:00N 35°37' E 139°48'0 0.0
2017-Sep-14 20:30N 35°37' E 139°48'2 4.7
2017-Sep-14 20:00N 35°35' E 139°48'612.6
2017-Sep-14 19:31N 35°29' E 139°52'815.7
2017-Sep-14 19:01N 35°23' E 139°46'611.6
2017-Sep-14 18:30N 35°17' E 139°45'612.1
2017-Sep-14 18:01N 35°11' E 139°46'1019.8
2017-Sep-14 17:30N 35°02' E 139°41'1020.3
2017-Sep-14 17:00N 34°56' E 139°31'23317.9
2017-Sep-14 03:59N 33°55' E 134°59'1120.9
2017-Sep-14 03:26N 34°06' E 134°59'1022.1
2017-Sep-14 03:00N 34°16' E 134°58'1021.2
2017-Sep-14 02:30N 34°26' E 135°01'1020.5
2017-Sep-14 02:00N 34°36' E 135°02'  
2017-Sep-11 14:40N 34°54' E 139°23'419.6
2017-Sep-11 14:29N 34°56' E 139°27'919.8
2017-Sep-11 14:00N 35°02' E 139°36'919.1
2017-Sep-11 13:30N 35°08' E 139°44'714.6
2017-Sep-11 13:01N 35°15' E 139°46'713.7
2017-Sep-11 12:31N 35°21' E 139°42'1019.0
2017-Sep-11 12:01N 35°29' E 139°50'714.5
2017-Sep-11 11:30N 35°36' E 139°47'1 2.6
2017-Sep-11 11:00N 35°37' E 139°48'0 0.0
2017-Sep-11 10:30N 35°37' E 139°48'0 0.0
2017-Sep-11 10:00N 35°37' E 139°48'0 0.0
2017-Sep-11 09:30N 35°37' E 139°48'0 0.0
2017-Sep-11 09:00N 35°37' E 139°48'0 0.0
2017-Sep-11 08:30N 35°37' E 139°48'0 0.0
2017-Sep-11 08:00N 35°37' E 139°48'0 0.0
2017-Sep-11 07:27N 35°37' E 139°48'0 0.0
2017-Sep-11 07:00N 35°37' E 139°48'0 0.0
2017-Sep-11 06:27N 35°37' E 139°48'0 0.0
2017-Sep-11 06:00N 35°37' E 139°48'0 0.0
2017-Sep-11 05:27N 35°37' E 139°48'0 0.0
2017-Sep-11 05:00N 35°37' E 139°48'0 0.0
2017-Sep-11 04:30N 35°37' E 139°48'0 0.0
2017-Sep-11 04:00N 35°37' E 139°48'0 0.0
2017-Sep-11 03:30N 35°37' E 139°48'0 0.0
2017-Sep-11 03:00N 35°37' E 139°48'0 0.0
2017-Sep-11 02:30N 35°37' E 139°48'0 0.0
2017-Sep-11 02:00N 35°37' E 139°48'0 0.0
2017-Sep-11 01:30N 35°37' E 139°48'0 0.0
2017-Sep-11 01:00N 35°37' E 139°48'0 0.0
2017-Sep-11 00:30N 35°37' E 139°48'0 0.0
2017-Sep-11 00:00N 35°37' E 139°48'0 0.0
2017-Sep-10 23:24N 35°37' E 139°48'0 0.0
2017-Sep-10 22:57N 35°37' E 139°48'0 0.0
2017-Sep-10 22:27N 35°37' E 139°48'0 0.0
2017-Sep-10 21:57N 35°37' E 139°48'0 0.0
2017-Sep-10 21:30N 35°37' E 139°48'0 0.0
2017-Sep-10 21:00N 35°37' E 139°48'0 0.0
2017-Sep-10 20:30N 35°37' E 139°48'0 0.0
2017-Sep-10 19:51N 35°37' E 139°48'0 0.0
2017-Sep-10 19:27N 35°37' E 139°48'0 0.0
2017-Sep-10 18:57N 35°37' E 139°48'0 0.0
2017-Sep-10 18:30N 35°37' E 139°48'0 0.0
2017-Sep-10 18:00N 35°37' E 139°48'0 0.0
2017-Sep-10 17:27N 35°37' E 139°48'0 0.0
2017-Sep-10 17:00N 35°37' E 139°48'0 0.0
2017-Sep-10 16:27N 35°37' E 139°48'0 0.0
2017-Sep-10 15:57N 35°37' E 139°48'  
Track history (hours):
 
Tides and Currents Weather Stations Pressure Air Temp Water Temp Dewpoint Dewpoint Depression Visibility Wind Speed Wind Dir Waves Ship Positions

Sunflower Tokyo

Last reported at 2017-Sep-20 15:47 UTC. Time now 2017-Sep-22 00:49 UTC.
Position N 34°44' E 139°12'.

Length 167 m; draft 6.5 m.

Type: Cargo ship. MMSI: 431200647.

Date/timePositionNaut miles runAvg speedWind from/ knotsBaromVisibWave heightAir tempDewpointWater temp
2017-Sep-20 15:47N 34°44' E 139°12'518.0
2017-Sep-20 15:30N 34°47' E 139°16'816.2
2017-Sep-20 14:59N 34°53' E 139°24'1818.9
2017-Sep-20 14:00N 35°05' E 139°41'918.1
2017-Sep-20 13:30N 35°13' E 139°46'612.3
2017-Sep-20 13:00N 35°19' E 139°43'815.7
2017-Sep-20 12:31N 35°26' E 139°46'815.8
2017-Sep-20 12:01N 35°33' E 139°50'4 8.7
2017-Sep-20 11:30N 35°37' E 139°48'0 0.0
2017-Sep-20 11:00N 35°37' E 139°48'0 0.0
2017-Sep-20 10:31N 35°37' E 139°48'0 0.0
2017-Sep-20 10:00N 35°37' E 139°48'0 0.0
2017-Sep-20 09:30N 35°37' E 139°48'0 0.0
2017-Sep-20 09:00N 35°37' E 139°48'0 0.0
2017-Sep-20 08:31N 35°37' E 139°48'0 0.0
2017-Sep-20 08:00N 35°37' E 139°48'0 0.0
2017-Sep-20 07:31N 35°37' E 139°48'0 0.0
2017-Sep-20 07:00N 35°37' E 139°48'0 0.0
2017-Sep-20 06:30N 35°37' E 139°48'0 0.0
2017-Sep-20 06:00N 35°37' E 139°48'0 0.0
2017-Sep-20 05:30N 35°37' E 139°48'0 0.0
2017-Sep-20 05:00N 35°37' E 139°48'0 0.0
2017-Sep-20 04:03N 35°37' E 139°48'0 0.0
2017-Sep-20 04:00N 35°37' E 139°48'0 0.0
2017-Sep-20 03:12N 35°37' E 139°48'0 0.0
2017-Sep-20 02:56N 35°37' E 139°48'0 0.0
2017-Sep-20 02:28N 35°37' E 139°48'0 0.0
2017-Sep-20 02:00N 35°37' E 139°48'0 0.0
2017-Sep-20 01:29N 35°37' E 139°48'0 0.0
2017-Sep-20 01:00N 35°37' E 139°48'0 0.0
2017-Sep-20 00:30N 35°37' E 139°48'0 0.0
2017-Sep-20 00:00N 35°37' E 139°48'0 0.0
2017-Sep-19 23:30N 35°37' E 139°48'0 0.0
2017-Sep-19 23:00N 35°37' E 139°48'0 0.0
2017-Sep-19 22:30N 35°37' E 139°48'0 0.0
2017-Sep-19 22:00N 35°37' E 139°48'0 0.0
2017-Sep-19 21:30N 35°37' E 139°48'0 0.0
2017-Sep-19 21:01N 35°37' E 139°48'1 2.0
2017-Sep-19 20:30N 35°36' E 139°47'611.4
2017-Sep-19 20:00N 35°32' E 139°52'4 7.0
2017-Sep-19 19:30N 35°28' E 139°51'611.2
2017-Sep-19 19:00N 35°24' E 139°46'611.2
2017-Sep-19 18:30N 35°18' E 139°44'611.8
2017-Sep-19 18:00N 35°13' E 139°47'918.4
2017-Sep-19 17:31N 35°05' E 139°42'917.0
2017-Sep-19 17:00N 34°59' E 139°34'714.3
2017-Sep-19 16:30N 34°55' E 139°27'1223.7
2017-Sep-19 15:59N 34°46' E 139°17'22020.0
2017-Sep-19 05:00N 33°56' E 134°58'1122.4
2017-Sep-19 04:30N 34°07' E 134°59'1223.7
2017-Sep-19 04:00N 34°19' E 134°59'1122.9
2017-Sep-19 03:30N 34°30' E 135°02'815.7
2017-Sep-19 03:00N 34°36' E 134°56'  
2017-Sep-15 15:19N 34°51' E 139°19'720.4
2017-Sep-15 14:59N 34°55' E 139°26'1020.2
2017-Sep-15 14:30N 35°01' E 139°35'1020.8
2017-Sep-15 14:00N 35°08' E 139°44'815.2
2017-Sep-15 13:31N 35°16' E 139°46'713.2
2017-Sep-15 13:00N 35°21' E 139°42'1019.4
2017-Sep-15 12:30N 35°29' E 139°50'714.6
2017-Sep-15 12:00N 35°36' E 139°47'1 2.1
2017-Sep-15 11:30N 35°37' E 139°48'0 0.0
2017-Sep-15 11:00N 35°37' E 139°48'0 0.0
2017-Sep-15 09:42N 35°37' E 139°48'0 0.0
2017-Sep-15 09:30N 35°37' E 139°48'0 0.0
2017-Sep-15 09:00N 35°37' E 139°48'0 0.0
2017-Sep-15 08:30N 35°37' E 139°48'0 0.0
2017-Sep-15 08:00N 35°37' E 139°48'0 0.0
2017-Sep-15 07:30N 35°37' E 139°48'0 0.0
2017-Sep-15 07:00N 35°37' E 139°48'0 0.0
2017-Sep-15 06:30N 35°37' E 139°48'0 0.0
2017-Sep-15 06:00N 35°37' E 139°48'0 0.0
2017-Sep-15 05:30N 35°37' E 139°48'0 0.0
2017-Sep-15 05:00N 35°37' E 139°48'0 0.0
2017-Sep-15 04:30N 35°37' E 139°48'0 0.0
2017-Sep-15 03:57N 35°37' E 139°48'0 0.0
2017-Sep-15 03:27N 35°37' E 139°48'0 0.0
2017-Sep-15 03:00N 35°37' E 139°48'0 0.0
2017-Sep-15 02:30N 35°37' E 139°48'0 0.0
2017-Sep-15 02:00N 35°37' E 139°48'0 0.0
2017-Sep-15 01:30N 35°37' E 139°48'0 0.0
2017-Sep-15 01:00N 35°37' E 139°48'0 0.0
2017-Sep-15 00:30N 35°37' E 139°48'0 0.0
2017-Sep-15 00:00N 35°37' E 139°48'0 0.0
2017-Sep-14 23:30N 35°37' E 139°48'0 0.0
2017-Sep-14 23:00N 35°37' E 139°48'0 0.0
2017-Sep-14 22:30N 35°37' E 139°48'0 0.0
2017-Sep-14 22:00N 35°37' E 139°48'0 0.0
2017-Sep-14 21:30N 35°37' E 139°48'0 0.0
2017-Sep-14 21:00N 35°37' E 139°48'0 0.0
2017-Sep-14 20:30N 35°37' E 139°48'2 4.7
2017-Sep-14 20:00N 35°35' E 139°48'612.6
2017-Sep-14 19:31N 35°29' E 139°52'815.7
2017-Sep-14 19:01N 35°23' E 139°46'611.6
2017-Sep-14 18:30N 35°17' E 139°45'612.1
2017-Sep-14 18:01N 35°11' E 139°46'1019.8
2017-Sep-14 17:30N 35°02' E 139°41'1020.3
2017-Sep-14 17:00N 34°56' E 139°31'23317.9
2017-Sep-14 03:59N 33°55' E 134°59'1120.9
2017-Sep-14 03:26N 34°06' E 134°59'1022.1
2017-Sep-14 03:00N 34°16' E 134°58'1021.2
2017-Sep-14 02:30N 34°26' E 135°01'1020.5
2017-Sep-14 02:00N 34°36' E 135°02'  
2017-Sep-11 14:40N 34°54' E 139°23'419.6
2017-Sep-11 14:29N 34°56' E 139°27'919.8
2017-Sep-11 14:00N 35°02' E 139°36'919.1
2017-Sep-11 13:30N 35°08' E 139°44'714.6
2017-Sep-11 13:01N 35°15' E 139°46'713.7
2017-Sep-11 12:31N 35°21' E 139°42'1019.0
2017-Sep-11 12:01N 35°29' E 139°50'714.5
2017-Sep-11 11:30N 35°36' E 139°47'1 2.6
2017-Sep-11 11:00N 35°37' E 139°48'0 0.0
2017-Sep-11 10:30N 35°37' E 139°48'0 0.0
2017-Sep-11 10:00N 35°37' E 139°48'0 0.0
2017-Sep-11 09:30N 35°37' E 139°48'0 0.0
2017-Sep-11 09:00N 35°37' E 139°48'0 0.0
2017-Sep-11 08:30N 35°37' E 139°48'0 0.0
2017-Sep-11 08:00N 35°37' E 139°48'0 0.0
2017-Sep-11 07:27N 35°37' E 139°48'0 0.0
2017-Sep-11 07:00N 35°37' E 139°48'0 0.0
2017-Sep-11 06:27N 35°37' E 139°48'0 0.0
2017-Sep-11 06:00N 35°37' E 139°48'0 0.0
2017-Sep-11 05:27N 35°37' E 139°48'0 0.0
2017-Sep-11 05:00N 35°37' E 139°48'0 0.0
2017-Sep-11 04:30N 35°37' E 139°48'0 0.0
2017-Sep-11 04:00N 35°37' E 139°48'0 0.0
2017-Sep-11 03:30N 35°37' E 139°48'0 0.0
2017-Sep-11 03:00N 35°37' E 139°48'0 0.0
2017-Sep-11 02:30N 35°37' E 139°48'0 0.0
2017-Sep-11 02:00N 35°37' E 139°48'0 0.0
2017-Sep-11 01:30N 35°37' E 139°48'0 0.0
2017-Sep-11 01:00N 35°37' E 139°48'0 0.0
2017-Sep-11 00:30N 35°37' E 139°48'0 0.0
2017-Sep-11 00:00N 35°37' E 139°48'0 0.0
2017-Sep-10 23:24N 35°37' E 139°48'0 0.0
2017-Sep-10 22:57N 35°37' E 139°48'0 0.0
2017-Sep-10 22:27N 35°37' E 139°48'0 0.0
2017-Sep-10 21:57N 35°37' E 139°48'0 0.0
2017-Sep-10 21:30N 35°37' E 139°48'0 0.0
2017-Sep-10 21:00N 35°37' E 139°48'0 0.0
2017-Sep-10 20:30N 35°37' E 139°48'0 0.0
2017-Sep-10 19:51N 35°37' E 139°48'0 0.0
2017-Sep-10 19:27N 35°37' E 139°48'0 0.0
2017-Sep-10 18:57N 35°37' E 139°48'0 0.0
2017-Sep-10 18:30N 35°37' E 139°48'0 0.0
2017-Sep-10 18:00N 35°37' E 139°48'0 0.0
2017-Sep-10 17:27N 35°37' E 139°48'0 0.0
2017-Sep-10 17:00N 35°37' E 139°48'0 0.0
2017-Sep-10 16:27N 35°37' E 139°48'0 0.0
2017-Sep-10 15:57N 35°37' E 139°48'  

Dump ship's entire track history